createdAt,value
2019-02-18T00:00:45.426Z,129.43
2019-02-18T00:03:12.977Z,143.53
2019-02-18T00:05:40.745Z,148.67
2019-02-18T00:08:08.220Z,144.70
2019-02-18T00:10:35.905Z,140.10
2019-02-18T00:13:03.625Z,126.13
2019-02-18T00:15:31.331Z,130.13
2019-02-18T00:17:58.940Z,119.40
2019-02-18T00:20:26.601Z,122.33
2019-02-18T00:22:54.159Z,129.00
2019-02-18T00:25:21.752Z,120.03
2019-02-18T00:27:49.366Z,124.67
2019-02-18T00:30:16.957Z,127.10
2019-02-18T00:32:44.805Z,134.87
2019-02-18T00:35:12.449Z,132.70
2019-02-18T00:37:40.072Z,132.43
2019-02-18T00:40:07.649Z,136.60
2019-02-18T00:42:35.177Z,142.27
2019-02-18T00:45:02.783Z,141.43
2019-02-18T00:47:30.496Z,137.47
2019-02-18T00:49:58.166Z,128.97
2019-02-18T00:52:45.641Z,136.70
2019-02-18T00:55:13.283Z,153.93
2019-02-18T00:57:40.982Z,141.50
2019-02-18T01:00:09.753Z,140.10
2019-02-18T01:02:37.650Z,129.43
2019-02-18T01:05:05.926Z,139.00
2019-02-18T01:07:35.204Z,132.23
2019-02-18T01:10:03.427Z,135.33
2019-02-18T01:12:31.502Z,136.37
2019-02-18T01:14:59.394Z,127.17
2019-02-18T01:17:27.101Z,138.27
2019-02-18T01:19:54.817Z,133.87
2019-02-18T01:22:22.573Z,140.83
2019-02-18T01:24:51.066Z,129.73
2019-02-18T01:27:18.805Z,153.87
2019-02-18T01:29:46.717Z,136.53
2019-02-18T01:32:14.315Z,145.00
2019-02-18T01:34:41.908Z,138.70
2019-02-18T01:37:09.991Z,169.73
2019-02-18T01:39:37.600Z,165.43
2019-02-18T01:42:05.373Z,159.23
2019-02-18T01:44:32.993Z,158.60
2019-02-18T01:47:00.633Z,152.97
2019-02-18T01:49:29.651Z,186.33
2019-02-18T01:51:57.367Z,208.57
2019-02-18T01:54:25.424Z,186.73
2019-02-18T01:56:53.270Z,197.77
2019-02-18T01:59:20.823Z,172.77
2019-02-18T02:01:48.887Z,170.77
2019-02-18T02:04:16.655Z,183.60
2019-02-18T02:06:46.417Z,185.07
2019-02-18T02:09:15.352Z,204.33
2019-02-18T02:11:43.231Z,205.00
2019-02-18T02:14:10.893Z,221.23
2019-02-18T02:16:38.531Z,223.97
2019-02-18T02:19:06.695Z,188.20
2019-02-18T02:21:34.414Z,199.97
2019-02-18T02:24:01.993Z,300.53
2019-02-18T02:26:29.679Z,204.07
2019-02-18T02:28:59.588Z,244.83
2019-02-18T02:31:27.317Z,222.50
2019-02-18T02:33:54.928Z,205.47
2019-02-18T02:36:22.631Z,237.00
2019-02-18T02:38:50.274Z,252.80
2019-02-18T02:41:17.925Z,222.10
2019-02-18T02:43:45.465Z,331.23
2019-02-18T02:46:13.206Z,258.47
2019-02-18T02:48:40.783Z,396.10
2019-02-18T02:51:08.882Z,398.77
2019-02-18T02:53:36.477Z,429.77
2019-02-18T02:56:04.531Z,316.43
2019-02-18T02:58:32.138Z,409.60
2019-02-18T03:00:59.706Z,360.00
2019-02-18T03:03:27.315Z,321.30
2019-02-18T03:05:54.983Z,270.57
2019-02-18T03:08:22.558Z,241.33
2019-02-18T03:10:50.157Z,346.87
2019-02-18T03:13:17.830Z,410.07
2019-02-18T03:15:45.471Z,288.37
2019-02-18T03:18:13.150Z,395.23
2019-02-18T03:20:40.719Z,335.93
2019-02-18T03:23:08.532Z,303.13
2019-02-18T03:25:36.138Z,310.33
2019-02-18T03:28:13.575Z,254.17
2019-02-18T03:31:07.876Z,216.00
2019-02-18T03:33:51.362Z,283.90
2019-02-18T03:36:19.046Z,300.47
2019-02-18T03:38:46.640Z,272.93
2019-02-18T03:41:14.352Z,290.83
2019-02-18T03:43:42.316Z,237.20
2019-02-18T03:46:10.074Z,222.20
2019-02-18T03:48:37.896Z,259.20
2019-02-18T03:51:06.003Z,346.60
2019-02-18T03:53:33.625Z,235.20
2019-02-18T03:56:01.290Z,327.93
2019-02-18T03:58:28.868Z,350.67
2019-02-18T04:00:56.708Z,263.13
2019-02-18T04:03:24.398Z,253.73
2019-02-18T04:05:52.000Z,258.27
2019-02-18T04:08:19.762Z,247.10
2019-02-18T04:10:47.534Z,209.77
2019-02-18T04:13:15.220Z,227.33
2019-02-18T04:15:42.945Z,205.77
2019-02-18T04:18:10.571Z,195.17
2019-02-18T04:20:38.327Z,157.27
2019-02-18T04:23:06.020Z,209.93
2019-02-18T04:25:33.643Z,216.23
2019-02-18T04:28:01.365Z,185.80
2019-02-18T04:30:29.125Z,248.13
2019-02-18T04:32:56.825Z,184.57
2019-02-18T04:35:24.427Z,263.47
2019-02-18T04:37:52.179Z,226.40
2019-02-18T04:40:19.846Z,247.53
2019-02-18T04:42:47.510Z,302.13
2019-02-18T04:45:15.148Z,250.67
2019-02-18T04:47:42.923Z,267.30
2019-02-18T04:50:10.664Z,230.17
2019-02-18T04:52:38.369Z,288.33
2019-02-18T04:55:07.141Z,236.63
2019-02-18T04:57:34.801Z,205.23
2019-02-18T05:00:02.465Z,218.93
2019-02-18T05:02:30.078Z,198.10
2019-02-18T05:04:57.719Z,162.90
2019-02-18T05:07:25.300Z,175.90
2019-02-18T05:09:52.838Z,171.40
2019-02-18T05:12:20.560Z,179.90
2019-02-18T05:14:48.173Z,215.23
2019-02-18T05:17:15.769Z,159.37
2019-02-18T05:19:43.652Z,164.37
2019-02-18T05:22:11.255Z,193.60
2019-02-18T05:24:38.922Z,191.63
2019-02-18T05:27:06.437Z,230.73
2019-02-18T05:29:34.480Z,196.20
2019-02-18T05:32:02.109Z,154.27
2019-02-18T05:34:29.757Z,206.43
2019-02-18T05:36:57.393Z,192.83
2019-02-18T05:39:24.979Z,185.70
2019-02-18T05:41:52.658Z,221.17
2019-02-18T05:44:20.592Z,210.00
2019-02-18T05:47:06.984Z,174.83
2019-02-18T05:49:34.478Z,142.47
2019-02-18T05:52:03.952Z,161.37
2019-02-18T05:54:32.878Z,172.93
2019-02-18T05:57:00.306Z,235.87
2019-02-18T05:59:27.765Z,187.30
2019-02-18T06:01:55.242Z,195.40
2019-02-18T06:04:22.769Z,171.50
2019-02-18T06:06:50.325Z,205.90
2019-02-18T06:09:28.579Z,230.50
2019-02-18T06:11:47.150Z,232.97
2019-02-18T06:14:14.514Z,164.37
2019-02-18T06:16:41.985Z,190.77
2019-02-18T06:19:09.475Z,218.57
2019-02-18T06:21:36.950Z,231.47
2019-02-18T06:24:04.413Z,216.43
2019-02-18T06:26:32.329Z,181.63
2019-02-18T06:28:59.814Z,309.13
2019-02-18T06:31:27.264Z,209.83
2019-02-18T06:33:54.789Z,168.00
2019-02-18T06:36:23.882Z,154.73
2019-02-18T06:38:51.540Z,147.37
2019-02-18T06:41:18.990Z,149.47
2019-02-18T06:43:46.455Z,146.97
2019-02-18T06:46:45.317Z,151.30
2019-02-18T06:49:18.128Z,189.43
2019-02-18T06:51:45.588Z,351.43
2019-02-18T06:54:13.082Z,132.83
2019-02-18T06:56:51.542Z,150.10
2019-02-18T06:59:26.400Z,135.10
2019-02-18T07:01:58.584Z,127.00
2019-02-18T07:04:43.209Z,135.43
2019-02-18T07:07:33.081Z,137.43
2019-02-18T07:10:15.110Z,122.97
2019-02-18T07:12:45.706Z,125.57
2019-02-18T07:15:13.185Z,116.43
2019-02-18T07:17:40.672Z,120.17
2019-02-18T07:20:08.159Z,117.37
2019-02-18T07:22:35.629Z,123.43
2019-02-18T07:25:03.269Z,138.97
2019-02-18T07:27:30.715Z,115.47
2019-02-18T07:29:58.285Z,112.53
2019-02-18T07:32:25.739Z,119.67
2019-02-18T07:34:53.886Z,116.90
2019-02-18T07:37:21.391Z,160.87
2019-02-18T07:39:48.879Z,117.00
2019-02-18T07:42:16.451Z,113.53
2019-02-18T07:44:43.906Z,134.87
2019-02-18T07:47:11.418Z,113.73
2019-02-18T07:49:38.867Z,95.33
2019-02-18T07:52:06.391Z,95.43
2019-02-18T07:54:33.891Z,89.30
2019-02-18T07:57:01.367Z,79.20
2019-02-18T07:59:29.450Z,82.10
2019-02-18T08:01:56.928Z,82.90
2019-02-18T08:04:24.393Z,91.70
2019-02-18T08:06:51.890Z,113.30
2019-02-18T08:09:19.716Z,119.90
2019-02-18T08:11:47.236Z,91.87
2019-02-18T08:14:14.669Z,103.17
2019-02-18T08:16:43.063Z,92.63
2019-02-18T08:19:15.514Z,88.27
2019-02-18T08:21:42.434Z,90.17
2019-02-18T08:24:10.186Z,84.57
2019-02-18T08:29:33.100Z,77.47
2019-02-18T08:32:00.614Z,91.57
2019-02-18T08:34:28.069Z,89.67
2019-02-18T08:36:55.556Z,92.20
2019-02-18T08:39:23.032Z,84.97
2019-02-18T08:41:50.489Z,104.57
2019-02-18T08:44:18.275Z,77.77
2019-02-18T08:46:45.776Z,75.53
2019-02-18T08:52:09.041Z,83.63
2019-02-18T08:54:38.770Z,84.33
2019-02-18T08:57:06.862Z,71.17
2019-02-18T08:59:34.924Z,72.90
2019-02-18T09:02:02.577Z,72.67
2019-02-18T09:04:30.248Z,73.30
2019-02-18T09:06:57.884Z,74.40
2019-02-18T09:09:25.595Z,74.23
2019-02-18T09:11:53.249Z,66.67
2019-02-18T09:14:20.851Z,68.83
2019-02-18T09:16:48.568Z,61.83
2019-02-18T09:19:16.180Z,64.43
2019-02-18T09:21:43.919Z,59.13
2019-02-18T09:24:19.353Z,60.57
2019-02-18T09:26:47.074Z,66.37
2019-02-18T09:29:14.753Z,65.23
2019-02-18T09:31:43.005Z,67.07
2019-02-18T09:34:10.759Z,67.73
2019-02-18T09:36:38.549Z,68.27
2019-02-18T09:39:17.951Z,57.73
2019-02-18T09:41:45.836Z,58.00
2019-02-18T09:44:13.605Z,62.17
2019-02-18T09:46:41.211Z,55.40
2019-02-18T09:49:09.071Z,60.33
2019-02-18T09:51:36.866Z,57.53
2019-02-18T09:54:04.795Z,56.57
2019-02-18T09:56:32.406Z,57.17
2019-02-18T09:59:19.337Z,65.93
2019-02-18T10:01:46.787Z,63.33
2019-02-18T10:04:14.273Z,70.07
2019-02-18T10:06:41.705Z,62.87
2019-02-18T10:09:10.775Z,60.93
2019-02-18T10:11:38.230Z,66.87
2019-02-18T10:14:05.703Z,71.90
2019-02-18T10:16:33.166Z,65.17
2019-02-18T10:19:00.642Z,66.67
2019-02-18T10:21:28.095Z,68.53
2019-02-18T10:23:55.544Z,63.80
2019-02-18T10:26:23.025Z,71.40
2019-02-18T10:28:50.470Z,70.23
2019-02-18T10:31:17.949Z,73.93
2019-02-18T10:33:45.767Z,76.90
2019-02-18T10:36:13.239Z,73.50
2019-02-18T10:38:40.741Z,79.60
2019-02-18T10:41:08.221Z,76.83
2019-02-18T10:43:35.682Z,81.67
2019-02-18T10:46:03.124Z,75.63
2019-02-18T10:48:30.588Z,69.03
2019-02-18T10:50:58.077Z,69.93
2019-02-18T10:53:25.546Z,74.10
2019-02-18T10:55:53.019Z,71.97
2019-02-18T10:58:20.471Z,92.95
2019-02-18T11:00:48.087Z,91.00
2019-02-18T11:03:15.514Z,121.13
2019-02-18T11:05:42.972Z,107.05
2019-02-18T11:08:10.435Z,95.67
2019-02-18T11:10:38.400Z,86.45
2019-02-18T11:13:06.281Z,98.42
2019-02-18T11:15:33.713Z,89.15
2019-02-18T11:18:21.633Z,96.53
2019-02-18T11:20:49.137Z,97.42
2019-02-18T11:23:16.602Z,84.32
2019-02-18T11:25:44.517Z,93.58
2019-02-18T11:28:11.961Z,94.20
2019-02-18T11:30:39.422Z,129.80
2019-02-18T11:33:06.900Z,110.28
2019-02-18T11:35:34.371Z,103.65
2019-02-18T11:38:01.860Z,102.00
2019-02-18T11:40:29.400Z,92.60
2019-02-18T11:42:56.828Z,87.02
2019-02-18T11:45:24.263Z,87.60
2019-02-18T11:47:51.744Z,80.70
2019-02-18T11:50:19.236Z,77.72
2019-02-18T11:52:46.721Z,73.95
2019-02-18T11:55:14.291Z,69.67
2019-02-18T11:57:42.120Z,63.65
2019-02-18T12:00:10.441Z,63.80
2019-02-18T12:02:37.901Z,56.88
2019-02-18T12:05:06.091Z,53.83
2019-02-18T12:07:33.588Z,57.67
2019-02-18T12:10:01.154Z,49.48
2019-02-18T12:12:28.628Z,48.17
2019-02-18T12:14:56.500Z,47.40
2019-02-18T12:17:23.991Z,52.35
2019-02-18T12:19:51.475Z,47.10
2019-02-18T12:22:18.950Z,46.20
2019-02-18T12:24:46.393Z,40.80
2019-02-18T12:27:13.880Z,47.53
2019-02-18T12:29:41.351Z,47.53
2019-02-18T12:32:08.818Z,46.20
2019-02-18T12:34:36.502Z,47.73
2019-02-18T12:37:03.953Z,43.73
2019-02-18T12:39:31.416Z,43.42
2019-02-18T12:41:58.876Z,43.40
2019-02-18T12:44:27.561Z,47.00
2019-02-18T12:46:55.135Z,36.17
2019-02-18T12:49:22.582Z,43.98
2019-02-18T12:51:50.015Z,32.75
2019-02-18T12:54:17.492Z,34.03
2019-02-18T12:56:44.957Z,34.67
2019-02-18T12:59:12.415Z,36.58
2019-02-18T13:01:39.873Z,33.20
2019-02-18T13:04:07.448Z,29.50
2019-02-18T13:06:34.910Z,29.77
2019-02-18T13:09:04.075Z,31.48
2019-02-18T13:11:31.925Z,35.28
2019-02-18T13:13:59.385Z,28.65
2019-02-18T13:16:26.827Z,33.10
2019-02-18T13:18:54.587Z,26.35
2019-02-18T13:21:23.177Z,28.35
2019-02-18T13:23:50.731Z,23.42
2019-02-18T13:26:18.201Z,27.32
2019-02-18T13:28:46.155Z,27.90
2019-02-18T13:31:14.069Z,27.52
2019-02-18T13:33:41.694Z,21.73
2019-02-18T13:36:12.403Z,27.45
2019-02-18T13:38:40.105Z,27.70
2019-02-18T13:41:07.730Z,27.13
2019-02-18T13:43:35.255Z,31.07
2019-02-18T13:46:02.873Z,22.42
2019-02-18T13:48:30.744Z,24.67
2019-02-18T13:50:58.401Z,22.93
2019-02-18T13:53:25.991Z,20.80
2019-02-18T13:55:53.523Z,18.48
2019-02-18T13:58:21.093Z,22.75
2019-02-18T14:00:49.008Z,22.00
2019-02-18T14:03:16.579Z,13.93
2019-02-18T14:05:44.659Z,18.48
2019-02-18T14:08:12.211Z,16.15
2019-02-18T14:10:39.911Z,16.15
2019-02-18T14:13:07.582Z,17.57
2019-02-18T14:15:35.299Z,16.52
2019-02-18T14:18:03.345Z,16.57
2019-02-18T14:20:30.918Z,18.42
2019-02-18T14:22:58.777Z,16.60
2019-02-18T14:25:26.610Z,20.02
2019-02-18T14:27:54.139Z,17.48
2019-02-18T14:30:21.736Z,18.30
2019-02-18T14:32:49.403Z,18.40
2019-02-18T14:35:17.236Z,18.20
2019-02-18T14:37:45.310Z,17.73
2019-02-18T14:40:15.334Z,23.95
2019-02-18T14:42:42.922Z,18.42
2019-02-18T14:45:10.970Z,21.82
2019-02-18T14:47:38.673Z,19.25
2019-02-18T14:50:06.665Z,19.35
2019-02-18T14:52:34.310Z,20.48
2019-02-18T14:55:04.992Z,20.12
2019-02-18T14:57:33.266Z,20.37
2019-02-18T15:00:01.187Z,19.73
2019-02-18T15:02:28.759Z,19.60
2019-02-18T15:04:56.416Z,26.05
2019-02-18T15:07:24.084Z,16.25
2019-02-18T15:09:52.077Z,23.73
2019-02-18T15:12:20.338Z,22.07
2019-02-18T15:14:47.924Z,24.30
2019-02-18T15:17:15.641Z,23.50
2019-02-18T15:19:43.931Z,26.02
2019-02-18T15:22:11.595Z,18.20
2019-02-18T15:24:39.401Z,20.92
2019-02-18T15:27:07.271Z,18.60
2019-02-18T15:29:34.940Z,22.40
2019-02-18T15:32:03.028Z,23.65
2019-02-18T15:34:30.828Z,19.65
2019-02-18T15:36:58.416Z,22.45
2019-02-18T15:39:25.963Z,20.12
2019-02-18T15:41:54.209Z,21.37
2019-02-18T15:44:21.799Z,22.80
2019-02-18T15:46:49.375Z,21.10
2019-02-18T15:49:16.911Z,19.32
2019-02-18T15:51:44.695Z,19.25
2019-02-18T15:54:12.913Z,22.32
2019-02-18T15:56:41.108Z,18.82
2019-02-18T15:59:08.753Z,21.50
2019-02-18T16:01:36.711Z,25.37
2019-02-18T16:04:04.387Z,21.75
2019-02-18T16:06:31.892Z,20.77
2019-02-18T16:08:59.427Z,20.95
2019-02-18T16:11:26.958Z,30.70
2019-02-18T16:13:54.641Z,26.68
2019-02-18T16:16:23.053Z,23.22
2019-02-18T16:18:50.882Z,21.68
2019-02-18T16:21:18.493Z,29.45
2019-02-18T16:23:46.192Z,33.88
2019-02-18T16:26:13.781Z,31.17
2019-02-18T16:28:41.762Z,32.88
2019-02-18T16:31:11.103Z,27.00
2019-02-18T16:33:38.679Z,29.15
2019-02-18T16:36:06.135Z,33.83
2019-02-18T16:38:33.922Z,32.90
2019-02-18T16:41:01.453Z,29.63
2019-02-18T16:43:30.118Z,30.97
2019-02-18T16:45:57.833Z,28.35
2019-02-18T16:48:25.493Z,31.90
2019-02-18T16:50:53.007Z,34.92
2019-02-18T16:53:20.506Z,38.50
2019-02-18T16:55:48.148Z,32.30
2019-02-18T16:58:15.643Z,38.02
2019-02-18T17:00:43.567Z,36.63
2019-02-18T17:03:11.487Z,38.10
2019-02-18T17:05:39.455Z,35.28
2019-02-18T17:08:07.625Z,37.17
2019-02-18T17:10:35.545Z,41.77
2019-02-18T17:13:08.160Z,43.65
2019-02-18T17:15:36.212Z,34.90
2019-02-18T17:18:03.799Z,39.00
2019-02-18T17:20:31.541Z,41.23
2019-02-18T17:22:59.213Z,47.80
2019-02-18T17:25:27.592Z,45.23
2019-02-18T17:27:58.265Z,45.83
2019-02-18T17:30:26.076Z,43.60
2019-02-18T17:32:53.777Z,48.33
2019-02-18T17:35:22.020Z,45.03
2019-02-18T17:37:52.488Z,50.17
2019-02-18T17:40:20.705Z,49.40
2019-02-18T17:42:48.329Z,51.17
2019-02-18T17:45:15.895Z,45.77
2019-02-18T17:47:43.394Z,48.03
2019-02-18T17:50:12.521Z,47.83
2019-02-18T17:52:40.062Z,42.20
2019-02-18T17:55:08.860Z,46.17
2019-02-18T17:57:36.693Z,46.07
2019-02-18T18:00:05.132Z,46.50
2019-02-18T18:02:32.731Z,56.07
2019-02-18T18:05:00.637Z,50.07
2019-02-18T18:07:28.138Z,43.03
2019-02-18T18:09:55.652Z,49.10
2019-02-18T18:12:23.244Z,49.50
2019-02-18T18:14:51.988Z,47.17
2019-02-18T18:17:19.479Z,47.27
2019-02-18T18:19:47.321Z,43.13
2019-02-18T18:22:14.891Z,42.43
2019-02-18T18:24:42.363Z,42.53
2019-02-18T18:27:10.282Z,46.37
2019-02-18T18:29:37.762Z,45.60
2019-02-18T18:32:05.970Z,49.10
2019-02-18T18:34:33.481Z,45.50
2019-02-18T18:37:01.148Z,50.00
2019-02-18T18:39:28.899Z,47.30
2019-02-18T18:41:56.517Z,44.33
2019-02-18T18:44:23.991Z,51.53
2019-02-18T18:46:51.539Z,45.87
2019-02-18T18:49:19.247Z,41.90
2019-02-18T18:51:46.777Z,51.10
2019-02-18T18:54:14.431Z,44.83
2019-02-18T18:56:41.996Z,46.40
2019-02-18T18:59:09.540Z,42.87
2019-02-18T19:01:36.986Z,54.63
2019-02-18T19:04:07.297Z,51.87
2019-02-18T19:06:34.991Z,49.53
2019-02-18T19:09:04.121Z,41.57
2019-02-18T19:11:31.691Z,49.83
2019-02-18T19:13:59.280Z,50.40
2019-02-18T19:16:27.485Z,61.80
2019-02-18T19:18:55.044Z,52.43
2019-02-18T19:21:26.017Z,59.03
2019-02-18T19:23:53.853Z,51.77
2019-02-18T19:26:21.369Z,53.03
2019-02-18T19:28:52.498Z,43.43
2019-02-18T19:31:20.130Z,39.87
2019-02-18T19:33:47.676Z,40.70
2019-02-18T19:36:15.431Z,42.10
2019-02-18T19:38:43.413Z,41.57
2019-02-18T19:41:11.041Z,39.27
2019-02-18T19:43:38.668Z,38.27
2019-02-18T19:46:09.142Z,41.23
2019-02-18T19:48:36.935Z,42.43
2019-02-18T19:51:05.453Z,52.70
2019-02-18T19:53:33.506Z,40.17
2019-02-18T19:56:01.469Z,40.93
2019-02-18T19:58:29.566Z,45.13
2019-02-18T20:00:57.544Z,53.77
2019-02-18T20:03:25.209Z,55.40
2019-02-18T20:05:52.757Z,46.57
2019-02-18T20:08:20.405Z,53.87
2019-02-18T20:10:48.404Z,49.47
2019-02-18T20:13:15.876Z,43.43
2019-02-18T20:15:44.649Z,47.03
2019-02-18T20:18:13.796Z,46.80
2019-02-18T20:20:41.379Z,48.83
2019-02-18T20:23:09.290Z,44.60
2019-02-18T20:25:37.414Z,49.10
2019-02-18T20:28:05.215Z,45.37
2019-02-18T20:30:32.883Z,44.73
2019-02-18T20:33:00.495Z,43.90
2019-02-18T20:35:28.191Z,54.80
2019-02-18T20:37:55.764Z,60.13
2019-02-18T20:40:23.518Z,52.17
2019-02-18T20:42:51.100Z,55.90
2019-02-18T20:45:18.604Z,63.40
2019-02-18T20:47:46.120Z,51.30
2019-02-18T20:50:13.710Z,58.40
2019-02-18T20:52:41.247Z,52.53
2019-02-18T20:55:09.507Z,60.43
2019-02-18T20:57:37.204Z,54.77
2019-02-18T21:00:08.826Z,57.67
2019-02-18T21:02:36.342Z,53.00
2019-02-18T21:05:04.095Z,51.47
2019-02-18T21:07:31.635Z,46.27
2019-02-18T21:09:59.117Z,51.33
2019-02-18T21:12:28.508Z,50.13
2019-02-18T21:14:56.780Z,41.80
2019-02-18T21:17:25.143Z,51.20
2019-02-18T21:19:52.698Z,57.93
2019-02-18T21:22:20.219Z,53.60
2019-02-18T21:24:47.768Z,56.33
2019-02-18T21:27:15.315Z,60.70
2019-02-18T21:29:43.140Z,61.20
2019-02-18T21:32:10.626Z,65.80
2019-02-18T21:34:38.154Z,59.60
2019-02-18T21:37:05.785Z,58.50
2019-02-18T21:39:33.299Z,59.33
2019-02-18T21:42:00.868Z,57.50
2019-02-18T21:44:28.388Z,66.83
2019-02-18T21:46:56.191Z,60.60
2019-02-18T21:49:23.790Z,61.40
2019-02-18T21:51:51.620Z,57.40
2019-02-18T21:54:19.098Z,57.37
2019-02-18T21:56:46.624Z,62.67
2019-02-18T21:59:14.155Z,58.60
2019-02-18T22:01:41.774Z,59.53
2019-02-18T22:04:09.467Z,63.73
2019-02-18T22:06:36.995Z,62.17
2019-02-18T22:09:05.777Z,70.10
2019-02-18T22:11:35.926Z,64.33
2019-02-18T22:14:03.446Z,62.63
2019-02-18T22:16:30.933Z,61.97
2019-02-18T22:18:58.435Z,65.13
2019-02-18T22:21:26.106Z,68.40
2019-02-18T22:23:53.628Z,65.37
2019-02-18T22:26:21.337Z,68.80
2019-02-18T22:28:48.817Z,65.30
2019-02-18T22:31:17.330Z,63.77
2019-02-18T22:33:44.920Z,65.17
2019-02-18T22:36:12.464Z,65.80
2019-02-18T22:38:40.356Z,69.03
2019-02-18T22:41:09.466Z,69.93
2019-02-18T22:43:36.936Z,73.07
2019-02-18T22:46:04.428Z,66.00
2019-02-18T22:48:31.966Z,67.43
2019-02-18T22:50:59.472Z,64.47
2019-02-18T22:53:28.827Z,56.90
2019-02-18T22:55:57.584Z,54.57
2019-02-18T22:58:25.171Z,53.47
2019-02-18T23:00:54.804Z,54.63
2019-02-18T23:03:22.959Z,60.07
2019-02-18T23:05:50.894Z,54.50
2019-02-18T23:08:18.380Z,50.90
2019-02-18T23:10:45.904Z,56.73
2019-02-18T23:13:13.720Z,56.40
2019-02-18T23:15:41.249Z,51.67
2019-02-18T23:18:08.788Z,60.97
2019-02-18T23:20:36.287Z,59.67
2019-02-18T23:23:03.854Z,56.73
2019-02-18T23:25:31.336Z,66.47
2019-02-18T23:28:02.464Z,56.00
2019-02-18T23:30:29.959Z,57.70
2019-02-18T23:32:57.492Z,64.17
2019-02-18T23:35:24.984Z,65.33
2019-02-18T23:37:52.812Z,68.67
2019-02-18T23:40:20.374Z,67.77
2019-02-18T23:42:47.870Z,61.87
2019-02-18T23:45:15.415Z,74.90
2019-02-18T23:47:42.942Z,70.47
2019-02-18T23:50:10.502Z,67.60
2019-02-18T23:52:38.015Z,66.20
2019-02-18T23:55:05.563Z,62.77
2019-02-18T23:57:33.070Z,70.20
